createdAt,value
2023-01-30T00:02:01.294Z,5.63
2023-01-30T00:04:29.320Z,5.63
2023-01-30T00:06:57.299Z,5.63
2023-01-30T00:09:25.359Z,5.67
2023-01-30T00:11:53.296Z,5.67
2023-01-30T00:14:21.356Z,5.73
2023-01-30T00:16:50.630Z,5.70
2023-01-30T00:19:18.445Z,5.71
2023-01-30T00:21:46.293Z,5.63
2023-01-30T00:24:14.523Z,5.74
2023-01-30T00:26:42.426Z,5.85
2023-01-30T00:29:10.610Z,5.86
2023-01-30T00:31:38.478Z,5.82
2023-01-30T00:34:07.965Z,5.78
2023-01-30T00:36:35.977Z,5.86
2023-01-30T00:39:04.239Z,5.81
2023-01-30T00:41:46.350Z,5.85
2023-01-30T00:44:31.419Z,5.91
2023-01-30T00:47:09.265Z,6.05
2023-01-30T00:49:39.257Z,5.93
2023-01-30T00:52:07.273Z,6.04
2023-01-30T00:54:35.669Z,6.05
2023-01-30T00:57:03.545Z,6.10
2023-01-30T00:59:31.703Z,6.13
2023-01-30T01:01:59.951Z,6.11
2023-01-30T01:04:27.989Z,5.99
2023-01-30T01:06:57.284Z,6.10
2023-01-30T01:09:25.201Z,6.07
2023-01-30T01:11:53.097Z,6.22
2023-01-30T01:14:20.992Z,6.29
2023-01-30T01:16:49.107Z,6.40
2023-01-30T01:19:17.561Z,6.40
2023-01-30T01:21:46.096Z,6.34
2023-01-30T01:24:16.993Z,6.28
2023-01-30T01:26:46.086Z,6.37
2023-01-30T01:29:15.411Z,6.37
2023-01-30T01:31:44.004Z,6.47
2023-01-30T01:34:12.624Z,6.40
2023-01-30T01:36:55.845Z,6.39
2023-01-30T01:39:45.440Z,6.25
2023-01-30T01:42:12.357Z,6.42
2023-01-30T01:45:12.364Z,6.44
2023-01-30T01:47:44.601Z,6.38
2023-01-30T01:50:17.123Z,6.46
2023-01-30T01:52:45.689Z,6.46
2023-01-30T01:55:16.963Z,6.42
2023-01-30T01:57:49.356Z,6.36
2023-01-30T02:00:19.507Z,6.39
2023-01-30T02:02:55.395Z,6.36
2023-01-30T02:05:24.655Z,6.43
2023-01-30T02:07:56.732Z,6.48
2023-01-30T02:10:31.850Z,6.49
2023-01-30T02:12:59.796Z,6.51
2023-01-30T02:15:27.631Z,6.48
2023-01-30T02:17:55.696Z,6.49
2023-01-30T02:20:32.742Z,6.46
2023-01-30T02:23:42.011Z,6.50
2023-01-30T02:26:44.107Z,6.50
2023-01-30T02:29:34.364Z,6.52
2023-01-30T02:32:09.052Z,6.50
2023-01-30T02:34:47.000Z,6.54
2023-01-30T02:37:28.504Z,6.56
2023-01-30T02:40:16.693Z,6.57
2023-01-30T02:42:52.749Z,6.54
2023-01-30T02:45:25.182Z,6.57
2023-01-30T02:48:00.915Z,6.63
2023-01-30T02:50:34.570Z,6.69
2023-01-30T02:53:04.554Z,6.66
2023-01-30T02:55:32.401Z,6.72
2023-01-30T02:58:01.405Z,6.73
2023-01-30T03:00:41.112Z,6.73
2023-01-30T03:03:27.072Z,6.82
2023-01-30T03:06:22.589Z,6.84
2023-01-30T03:09:01.397Z,6.89
2023-01-30T03:11:39.272Z,6.77
2023-01-30T03:14:16.131Z,6.92
2023-01-30T03:16:45.849Z,6.96
2023-01-30T03:19:15.206Z,7.07
2023-01-30T03:21:44.791Z,7.01
2023-01-30T03:24:13.257Z,7.09
2023-01-30T03:26:46.336Z,7.08
2023-01-30T03:29:14.205Z,7.17
2023-01-30T03:31:42.270Z,7.27
2023-01-30T03:34:10.496Z,7.22
2023-01-30T03:36:39.775Z,7.22
2023-01-30T03:39:08.441Z,7.33
2023-01-30T03:41:36.537Z,7.38
2023-01-30T03:44:04.478Z,7.35
2023-01-30T03:46:32.339Z,7.34
2023-01-30T03:49:00.254Z,7.43
2023-01-30T03:51:28.119Z,7.47
2023-01-30T03:53:57.454Z,7.49
2023-01-30T03:56:25.681Z,7.53
2023-01-30T03:58:53.547Z,7.49
2023-01-30T04:01:21.668Z,7.47
2023-01-30T04:03:49.700Z,7.52
2023-01-30T04:06:17.636Z,7.48
2023-01-30T04:08:45.574Z,7.39
2023-01-30T04:11:15.015Z,7.38
2023-01-30T04:13:42.822Z,7.46
2023-01-30T04:16:19.074Z,7.41
2023-01-30T04:18:46.955Z,7.54
2023-01-30T04:21:15.906Z,7.57
2023-01-30T04:23:44.532Z,7.65
2023-01-30T04:26:14.909Z,7.70
2023-01-30T04:28:44.499Z,7.60
2023-01-30T04:31:12.686Z,7.66
2023-01-30T04:33:41.430Z,7.81
2023-01-30T04:36:11.207Z,7.89
2023-01-30T04:38:39.834Z,7.91
2023-01-30T04:41:07.722Z,7.85
2023-01-30T04:43:37.129Z,7.89
2023-01-30T04:46:05.234Z,7.89
2023-01-30T04:48:33.336Z,7.94
2023-01-30T04:51:01.359Z,7.98
2023-01-30T04:53:29.271Z,7.99
2023-01-30T04:55:57.186Z,8.02
2023-01-30T04:58:25.095Z,8.08
2023-01-30T05:00:54.468Z,8.09
2023-01-30T05:03:22.518Z,8.20
2023-01-30T05:05:50.698Z,8.25
2023-01-30T05:08:18.620Z,8.19
2023-01-30T05:10:46.541Z,8.18
2023-01-30T05:13:14.478Z,8.19
2023-01-30T05:15:42.369Z,8.25
2023-01-30T05:18:11.627Z,8.29
2023-01-30T05:20:39.481Z,8.24
2023-01-30T05:23:07.372Z,8.16
2023-01-30T05:25:35.267Z,8.04
2023-01-30T05:28:03.439Z,7.90
2023-01-30T05:30:31.408Z,7.92
2023-01-30T05:33:00.107Z,7.93
2023-01-30T05:35:30.430Z,8.04
2023-01-30T05:37:59.477Z,8.08
2023-01-30T05:40:28.081Z,8.04
2023-01-30T05:42:56.085Z,7.93
2023-01-30T05:45:24.179Z,7.98
2023-01-30T05:47:56.242Z,7.94
2023-01-30T05:50:24.945Z,8.04
2023-01-30T05:52:54.298Z,8.02
2023-01-30T05:55:22.168Z,8.02
2023-01-30T05:57:50.049Z,7.91
2023-01-30T06:00:18.884Z,7.95
2023-01-30T06:02:47.153Z,7.85
2023-01-30T06:05:15.469Z,7.76
2023-01-30T06:07:43.588Z,7.59
2023-01-30T06:10:13.449Z,7.62
2023-01-30T06:12:41.379Z,7.60
2023-01-30T06:15:10.377Z,7.58
2023-01-30T06:17:38.225Z,7.56
2023-01-30T06:20:07.036Z,7.57
2023-01-30T06:22:34.876Z,7.54
2023-01-30T06:25:02.732Z,7.44
2023-01-30T06:27:32.116Z,7.48
2023-01-30T06:29:59.926Z,7.47
2023-01-30T06:32:27.745Z,7.36
2023-01-30T06:34:55.607Z,7.33
2023-01-30T06:37:23.473Z,7.26
2023-01-30T06:39:51.339Z,7.06
2023-01-30T06:42:19.312Z,6.94
2023-01-30T06:44:48.574Z,6.93
2023-01-30T06:47:16.472Z,6.97
2023-01-30T06:49:44.379Z,7.03
2023-01-30T06:52:12.235Z,7.07
2023-01-30T06:54:40.123Z,7.07
2023-01-30T06:57:08.080Z,7.16
2023-01-30T06:59:36.016Z,7.12
2023-01-30T07:02:05.426Z,7.19
2023-01-30T07:04:33.508Z,7.16
2023-01-30T07:07:01.507Z,7.20
2023-01-30T07:09:29.424Z,7.14
2023-01-30T07:11:57.449Z,7.04
2023-01-30T07:14:25.371Z,6.98
2023-01-30T07:16:53.377Z,7.00
2023-01-30T07:19:22.639Z,7.02
2023-01-30T07:21:50.503Z,7.11
2023-01-30T07:24:18.474Z,7.13
2023-01-30T07:26:48.927Z,7.08
2023-01-30T07:29:16.915Z,7.16
2023-01-30T07:31:44.861Z,7.24
2023-01-30T07:34:12.772Z,7.20
2023-01-30T07:36:42.094Z,7.19
2023-01-30T07:39:10.295Z,7.10
2023-01-30T07:41:38.134Z,7.02
2023-01-30T07:44:07.823Z,7.25
2023-01-30T07:46:35.994Z,7.23
2023-01-30T07:49:04.062Z,7.29
2023-01-30T07:51:32.142Z,7.42
2023-01-30T07:54:02.138Z,7.41
2023-01-30T07:56:30.062Z,7.42
2023-01-30T07:58:58.329Z,7.43
2023-01-30T08:01:26.293Z,7.43
2023-01-30T08:03:54.279Z,7.35
2023-01-30T08:06:22.243Z,7.39
2023-01-30T08:08:50.540Z,7.60
2023-01-30T08:11:19.767Z,7.58
2023-01-30T08:13:48.058Z,7.63
2023-01-30T08:16:16.068Z,7.65
2023-01-30T08:18:44.253Z,7.70
2023-01-30T08:21:12.845Z,7.48
2023-01-30T08:23:40.873Z,7.49
2023-01-30T08:26:08.818Z,7.42
2023-01-30T08:28:38.014Z,7.47
2023-01-30T08:31:11.118Z,7.42
2023-01-30T08:33:39.146Z,7.50
2023-01-30T08:36:07.725Z,7.57
2023-01-30T08:38:35.687Z,7.63
2023-01-30T08:41:06.722Z,7.79
2023-01-30T08:43:34.934Z,7.82
2023-01-30T08:46:04.931Z,7.86
2023-01-30T08:48:43.508Z,7.91
2023-01-30T08:51:17.022Z,7.89
2023-01-30T08:53:44.914Z,7.78
2023-01-30T08:56:12.709Z,7.79
2023-01-30T08:58:43.797Z,7.91
2023-01-30T09:01:13.203Z,7.96
2023-01-30T09:03:42.677Z,8.08
2023-01-30T09:06:10.925Z,8.00
2023-01-30T09:08:38.821Z,8.14
2023-01-30T09:11:07.537Z,8.24
2023-01-30T09:13:36.121Z,8.30
2023-01-30T09:16:04.611Z,8.35
2023-01-30T09:18:33.951Z,8.46
2023-01-30T09:21:05.609Z,8.41
2023-01-30T09:23:33.551Z,8.33
2023-01-30T09:26:02.337Z,8.47
2023-01-30T09:28:30.306Z,8.40
2023-01-30T09:30:59.236Z,8.34
2023-01-30T09:33:27.485Z,8.50
2023-01-30T09:35:57.280Z,8.42
2023-01-30T09:38:25.324Z,8.53
2023-01-30T09:41:05.931Z,8.60
2023-01-30T09:43:53.809Z,8.56
2023-01-30T09:46:32.002Z,8.77
2023-01-30T09:49:11.181Z,8.76
2023-01-30T09:52:04.735Z,8.91
2023-01-30T09:54:35.972Z,8.87
2023-01-30T09:57:21.061Z,8.77
2023-01-30T09:59:59.062Z,8.52
2023-01-30T10:02:49.072Z,8.32
2023-01-30T10:05:17.452Z,8.14
2023-01-30T10:08:16.134Z,8.01
2023-01-30T10:11:00.812Z,7.83
2023-01-30T10:13:59.242Z,7.60
2023-01-30T10:16:32.584Z,7.64
2023-01-30T10:19:36.487Z,7.52
2023-01-30T10:22:15.865Z,7.47
2023-01-30T10:24:56.178Z,7.14
2023-01-30T10:27:27.331Z,6.95
2023-01-30T10:29:58.166Z,6.87
2023-01-30T10:32:31.916Z,6.83
2023-01-30T10:35:06.427Z,6.93
2023-01-30T10:37:42.974Z,7.00
2023-01-30T10:40:24.260Z,7.18
2023-01-30T10:43:04.627Z,7.36
2023-01-30T10:45:39.406Z,7.54
2023-01-30T10:48:34.306Z,7.60
2023-01-30T10:51:22.573Z,7.66
2023-01-30T10:53:56.501Z,7.78
2023-01-30T10:56:34.602Z,7.83
2023-01-30T10:59:15.176Z,7.86
2023-01-30T11:01:46.194Z,7.70
2023-01-30T11:04:28.901Z,7.47
2023-01-30T11:06:58.519Z,7.29
2023-01-30T11:09:38.485Z,6.88
2023-01-30T11:12:07.956Z,6.72
2023-01-30T11:14:53.161Z,6.46
2023-01-30T11:17:23.015Z,6.34
2023-01-30T11:19:57.848Z,6.30
2023-01-30T11:22:27.669Z,6.23
2023-01-30T11:25:04.570Z,6.18
2023-01-30T11:27:36.018Z,6.25
2023-01-30T11:30:15.056Z,6.31
2023-01-30T11:32:44.811Z,6.42
2023-01-30T11:35:26.893Z,6.48
2023-01-30T11:37:55.487Z,6.43
2023-01-30T11:40:31.319Z,6.48
2023-01-30T11:43:07.032Z,6.57
2023-01-30T11:45:39.965Z,6.65
2023-01-30T11:48:32.924Z,6.96
2023-01-30T11:51:07.601Z,7.14
2023-01-30T11:53:39.138Z,7.29
2023-01-30T11:56:13.028Z,7.44
2023-01-30T11:58:46.350Z,7.58
2023-01-30T12:01:16.254Z,7.75
2023-01-30T12:03:50.402Z,7.71
2023-01-30T12:06:29.828Z,7.73
2023-01-30T12:08:58.491Z,7.58
2023-01-30T12:11:30.580Z,7.51
2023-01-30T12:14:16.351Z,7.80
2023-01-30T12:16:55.660Z,8.07
2023-01-30T12:19:44.773Z,8.30
2023-01-30T12:22:22.578Z,8.28
2023-01-30T12:24:59.197Z,8.17
2023-01-30T12:27:38.612Z,7.96
2023-01-30T12:30:22.583Z,7.85
2023-01-30T12:32:50.787Z,7.72
2023-01-30T12:35:20.497Z,7.39
2023-01-30T12:38:01.860Z,6.93
2023-01-30T12:40:45.994Z,6.79
2023-01-30T12:43:35.105Z,6.76
2023-01-30T12:46:17.403Z,6.70
2023-01-30T12:49:12.090Z,6.82
2023-01-30T12:52:02.933Z,6.92
2023-01-30T12:54:46.083Z,6.99
2023-01-30T12:57:24.394Z,6.93
2023-01-30T13:00:05.068Z,7.04
2023-01-30T13:02:52.225Z,7.13
2023-01-30T13:05:33.145Z,7.34
2023-01-30T13:08:12.784Z,7.40
2023-01-30T13:10:47.993Z,7.39
2023-01-30T13:13:22.897Z,7.45
2023-01-30T13:15:58.450Z,7.39
2023-01-30T13:18:35.635Z,7.41
2023-01-30T13:21:09.456Z,7.62
2023-01-30T13:23:50.418Z,7.67
2023-01-30T13:26:22.708Z,7.65
2023-01-30T13:28:54.276Z,7.63
2023-01-30T13:31:26.453Z,7.78
2023-01-30T13:34:06.374Z,7.86
2023-01-30T13:36:41.321Z,7.93
2023-01-30T13:39:14.436Z,7.94
2023-01-30T13:41:48.314Z,7.92
2023-01-30T13:44:22.560Z,7.86
2023-01-30T13:46:54.075Z,7.92
2023-01-30T13:49:30.509Z,7.94
2023-01-30T13:52:03.945Z,7.70
2023-01-30T13:54:43.495Z,7.39
2023-01-30T13:57:21.894Z,7.29
2023-01-30T14:00:20.295Z,7.21
2023-01-30T14:03:32.277Z,7.07
2023-01-30T14:06:09.557Z,6.98
2023-01-30T14:08:49.521Z,6.97
2023-01-30T14:11:34.503Z,7.05
2023-01-30T14:14:09.758Z,7.28
2023-01-30T14:16:43.318Z,7.30
2023-01-30T14:19:23.633Z,7.46
2023-01-30T14:21:58.854Z,7.60
2023-01-30T14:24:28.634Z,7.63
2023-01-30T14:27:05.717Z,7.74
2023-01-30T14:29:54.335Z,7.80
2023-01-30T14:32:55.033Z,7.83
2023-01-30T14:35:30.567Z,7.85
2023-01-30T14:38:15.641Z,7.85
2023-01-30T14:40:49.477Z,7.83
2023-01-30T14:43:37.828Z,7.81
2023-01-30T14:46:09.059Z,7.93
2023-01-30T14:48:44.725Z,7.98
2023-01-30T14:51:23.148Z,7.86
2023-01-30T14:53:56.229Z,7.91
2023-01-30T14:56:42.537Z,7.97
2023-01-30T14:59:22.607Z,7.96
2023-01-30T15:02:00.853Z,7.99
2023-01-30T15:04:32.886Z,7.97
2023-01-30T15:07:07.837Z,8.06
2023-01-30T15:09:40.006Z,8.01
2023-01-30T15:12:35.397Z,7.97
2023-01-30T15:15:13.057Z,7.99
2023-01-30T15:18:07.122Z,8.01
2023-01-30T15:20:47.249Z,7.95
2023-01-30T15:23:43.707Z,7.96
2023-01-30T15:26:29.203Z,8.02
2023-01-30T15:29:09.468Z,8.08
2023-01-30T15:31:37.524Z,8.01
2023-01-30T15:34:20.160Z,7.89
2023-01-30T15:36:48.082Z,7.98
2023-01-30T15:39:21.328Z,7.98
2023-01-30T15:41:52.614Z,7.97
2023-01-30T15:44:49.988Z,7.94
2023-01-30T15:47:28.578Z,8.08
2023-01-30T15:50:00.909Z,8.09
2023-01-30T15:52:40.150Z,8.04
2023-01-30T15:55:16.943Z,8.01
2023-01-30T15:57:57.713Z,7.96
2023-01-30T16:00:30.023Z,8.07
2023-01-30T16:03:00.236Z,7.98
2023-01-30T16:05:28.872Z,7.89
2023-01-30T16:07:59.717Z,7.82
2023-01-30T16:10:32.603Z,7.77
2023-01-30T16:13:04.962Z,7.79
2023-01-30T16:15:40.333Z,7.80
2023-01-30T16:18:20.261Z,7.70
2023-01-30T16:21:01.695Z,7.74
2023-01-30T16:23:33.138Z,7.77
2023-01-30T16:26:01.909Z,7.86
2023-01-30T16:28:33.440Z,7.82
2023-01-30T16:31:03.716Z,7.78
2023-01-30T16:33:36.693Z,7.85
2023-01-30T16:36:06.342Z,7.78
2023-01-30T16:38:40.917Z,7.67
2023-01-30T16:41:30.893Z,7.58
2023-01-30T16:44:31.268Z,7.54
2023-01-30T16:47:01.897Z,7.52
2023-01-30T16:49:45.578Z,7.57
2023-01-30T16:52:23.477Z,7.53
2023-01-30T16:54:53.827Z,7.57
2023-01-30T16:57:31.790Z,7.60
2023-01-30T17:00:03.636Z,7.50
2023-01-30T17:02:36.235Z,7.42
2023-01-30T17:05:21.468Z,7.46
2023-01-30T17:07:50.841Z,7.43
2023-01-30T17:10:51.381Z,7.39
2023-01-30T17:13:36.182Z,7.44
2023-01-30T17:16:32.074Z,7.53
2023-01-30T17:19:00.921Z,7.50
2023-01-30T17:21:32.724Z,7.42
2023-01-30T17:24:02.967Z,7.38
2023-01-30T17:26:31.297Z,7.36
2023-01-30T17:28:59.508Z,7.43
2023-01-30T17:31:28.855Z,7.47
2023-01-30T17:33:56.763Z,7.51
2023-01-30T17:36:28.041Z,7.57
2023-01-30T17:38:56.812Z,7.55
2023-01-30T17:41:30.328Z,7.56
2023-01-30T17:43:58.585Z,7.52
2023-01-30T17:46:35.055Z,7.42
2023-01-30T17:49:03.430Z,7.40
2023-01-30T17:51:31.316Z,7.49
2023-01-30T17:53:59.322Z,7.48
2023-01-30T17:56:35.750Z,7.45
2023-01-30T17:59:05.794Z,7.33
2023-01-30T18:01:35.213Z,7.35
2023-01-30T18:04:03.133Z,7.27
2023-01-30T18:06:32.213Z,7.36
2023-01-30T18:09:00.175Z,7.29
2023-01-30T18:11:28.053Z,7.19
2023-01-30T18:13:56.091Z,7.19
2023-01-30T18:16:26.864Z,7.29
2023-01-30T18:18:56.302Z,7.23
2023-01-30T18:21:24.132Z,7.17
2023-01-30T18:23:52.069Z,7.25
2023-01-30T18:26:20.612Z,7.22
2023-01-30T18:28:49.085Z,7.16
2023-01-30T18:31:17.461Z,7.09
2023-01-30T18:33:45.802Z,7.17
2023-01-30T18:36:17.860Z,7.08
2023-01-30T18:38:46.360Z,6.98
2023-01-30T18:41:16.621Z,6.94
2023-01-30T18:43:45.895Z,6.94
2023-01-30T18:46:15.768Z,6.86
2023-01-30T18:48:44.724Z,6.91
2023-01-30T18:51:18.257Z,6.90
2023-01-30T18:53:47.990Z,6.82
2023-01-30T18:56:18.058Z,6.79
2023-01-30T18:58:46.132Z,6.76
2023-01-30T19:01:16.396Z,6.62
2023-01-30T19:03:45.015Z,6.62
2023-01-30T19:06:17.693Z,6.54
2023-01-30T19:08:46.835Z,6.52
2023-01-30T19:11:34.479Z,6.62
2023-01-30T19:14:03.675Z,6.55
2023-01-30T19:16:33.967Z,6.52
2023-01-30T19:19:02.728Z,6.57
2023-01-30T19:21:32.620Z,6.52
2023-01-30T19:24:03.303Z,6.51
2023-01-30T19:26:31.182Z,6.50
2023-01-30T19:28:59.372Z,6.44
2023-01-30T19:31:27.384Z,6.46
2023-01-30T19:33:58.201Z,6.41
2023-01-30T19:36:27.869Z,6.37
2023-01-30T19:38:59.415Z,6.29
2023-01-30T19:41:30.424Z,6.23
2023-01-30T19:44:00.451Z,6.16
2023-01-30T19:46:28.874Z,6.15
2023-01-30T19:48:57.536Z,6.16
2023-01-30T19:51:27.564Z,6.21
2023-01-30T19:53:58.379Z,6.20
2023-01-30T19:56:27.295Z,6.24
2023-01-30T19:58:57.240Z,6.24
2023-01-30T20:01:29.791Z,6.28
2023-01-30T20:03:59.028Z,6.29
2023-01-30T20:06:29.267Z,6.35
2023-01-30T20:09:01.048Z,6.36
2023-01-30T20:11:29.437Z,6.36
2023-01-30T20:13:57.892Z,6.35
2023-01-30T20:16:29.458Z,6.30
2023-01-30T20:18:59.606Z,6.37
2023-01-30T20:21:30.982Z,6.35
2023-01-30T20:24:01.094Z,6.33
2023-01-30T20:26:30.940Z,6.33
2023-01-30T20:28:59.323Z,6.31
2023-01-30T20:31:28.901Z,6.27
2023-01-30T20:33:57.919Z,6.23
2023-01-30T20:36:27.507Z,6.25
2023-01-30T20:38:56.573Z,6.24
2023-01-30T20:41:29.220Z,6.25
2023-01-30T20:43:58.383Z,6.27
2023-01-30T20:46:28.449Z,6.15
2023-01-30T20:48:57.895Z,6.15
2023-01-30T20:51:28.709Z,6.17
2023-01-30T20:53:58.071Z,6.22
2023-01-30T20:56:31.215Z,6.19
2023-01-30T20:58:59.265Z,6.21
2023-01-30T21:01:27.192Z,6.33
2023-01-30T21:03:55.690Z,6.43
2023-01-30T21:06:41.295Z,6.47
2023-01-30T21:09:12.891Z,6.59
2023-01-30T21:11:42.501Z,6.62
2023-01-30T21:14:10.844Z,6.56
2023-01-30T21:16:39.531Z,6.50
2023-01-30T21:19:09.857Z,6.38
2023-01-30T21:21:42.957Z,6.40
2023-01-30T21:24:14.847Z,6.33
2023-01-30T21:26:46.470Z,6.20
2023-01-30T21:29:16.635Z,6.19
2023-01-30T21:31:45.407Z,6.14
2023-01-30T21:34:14.069Z,6.10
2023-01-30T21:36:42.100Z,6.06
2023-01-30T21:39:32.010Z,6.06
2023-01-30T21:42:21.203Z,5.92
2023-01-30T21:44:49.236Z,5.92
2023-01-30T21:47:17.113Z,5.92
2023-01-30T21:49:45.610Z,5.87
2023-01-30T21:52:13.473Z,5.86
2023-01-30T21:54:41.405Z,5.86
2023-01-30T21:57:10.854Z,5.87
2023-01-30T21:59:38.992Z,5.82
2023-01-30T22:02:07.296Z,5.91
2023-01-30T22:04:36.617Z,5.91
2023-01-30T22:07:06.829Z,5.98
2023-01-30T22:09:35.173Z,5.92
2023-01-30T22:12:03.501Z,6.04
2023-01-30T22:14:35.219Z,6.09
2023-01-30T22:17:03.193Z,6.14
2023-01-30T22:19:35.485Z,6.29
2023-01-30T22:22:03.972Z,6.27
2023-01-30T22:24:32.297Z,6.23
2023-01-30T22:27:00.166Z,6.12
2023-01-30T22:29:29.154Z,6.15
2023-01-30T22:31:58.534Z,6.09
2023-01-30T22:34:26.531Z,6.16
2023-01-30T22:36:54.471Z,6.28
2023-01-30T22:39:22.427Z,6.36
2023-01-30T22:41:50.259Z,6.35
2023-01-30T22:44:18.133Z,6.40
2023-01-30T22:46:46.042Z,6.40
2023-01-30T22:49:15.234Z,6.38
2023-01-30T22:51:43.606Z,6.21
2023-01-30T22:54:15.547Z,6.13
2023-01-30T22:56:45.017Z,6.04
2023-01-30T22:59:13.558Z,5.98
2023-01-30T23:01:43.051Z,5.93
2023-01-30T23:04:13.487Z,5.95
2023-01-30T23:06:43.757Z,5.99
2023-01-30T23:09:17.261Z,5.98
2023-01-30T23:12:07.982Z,6.04
2023-01-30T23:14:35.779Z,6.08
2023-01-30T23:17:25.372Z,6.01
2023-01-30T23:19:52.624Z,6.00
2023-01-30T23:22:21.973Z,5.93
2023-01-30T23:24:51.182Z,5.87
2023-01-30T23:27:19.670Z,5.91
2023-01-30T23:29:47.671Z,5.92
2023-01-30T23:32:19.084Z,5.91
2023-01-30T23:34:47.122Z,6.05
2023-01-30T23:37:15.023Z,6.10
2023-01-30T23:39:44.675Z,6.18
2023-01-30T23:42:12.663Z,6.23
2023-01-30T23:44:40.505Z,6.27
2023-01-30T23:47:08.434Z,6.39
2023-01-30T23:49:36.391Z,6.42
2023-01-30T23:52:04.225Z,6.48
2023-01-30T23:54:32.126Z,6.44
2023-01-30T23:57:01.567Z,6.57
2023-01-30T23:59:29.389Z,6.56
